sensor_id;sensor_type;location;lat;lon;timestamp;pressure;altitude;pressure_sealevel;temperature;humidity
7906;BME280;13291;40.472;-3.878;2022-08-02T00:01:45;52755.94;;;-139.96;29.56
7906;BME280;13291;40.472;-3.878;2022-08-02T00:04:13;52765.94;;;-139.96;29.71
7906;BME280;13291;40.472;-3.878;2022-08-02T00:06:40;52789.94;;;-139.96;29.57
7906;BME280;13291;40.472;-3.878;2022-08-02T00:09:07;52759.94;;;-139.96;29.52
7906;BME280;13291;40.472;-3.878;2022-08-02T00:11:34;52767.94;;;-139.96;29.58
7906;BME280;13291;40.472;-3.878;2022-08-02T00:14:01;52761.94;;;-139.96;29.91
7906;BME280;13291;40.472;-3.878;2022-08-02T00:16:28;52759.94;;;-139.96;29.81
7906;BME280;13291;40.472;-3.878;2022-08-02T00:18:55;52763.94;;;-139.96;29.90
7906;BME280;13291;40.472;-3.878;2022-08-02T00:21:24;52783.94;;;-139.96;29.64
7906;BME280;13291;40.472;-3.878;2022-08-02T00:23:50;52761.94;;;-139.96;30.09
7906;BME280;13291;40.472;-3.878;2022-08-02T00:26:17;52763.94;;;-139.96;29.97
7906;BME280;13291;40.472;-3.878;2022-08-02T00:28:44;52731.94;;;-139.96;29.86
7906;BME280;13291;40.472;-3.878;2022-08-02T00:31:11;52757.94;;;-139.96;30.11
7906;BME280;13291;40.472;-3.878;2022-08-02T00:33:38;52749.94;;;-139.96;29.97
7906;BME280;13291;40.472;-3.878;2022-08-02T00:36:05;52773.94;;;-139.96;30.20
7906;BME280;13291;40.472;-3.878;2022-08-02T00:38:34;52771.94;;;-139.96;29.95
7906;BME280;13291;40.472;-3.878;2022-08-02T00:41:00;52765.94;;;-139.96;30.27
7906;BME280;13291;40.472;-3.878;2022-08-02T00:43:27;52769.94;;;-139.96;30.06
7906;BME280;13291;40.472;-3.878;2022-08-02T00:45:54;52755.94;;;-139.96;30.30
7906;BME280;13291;40.472;-3.878;2022-08-02T00:48:22;52771.94;;;-139.96;30.62
7906;BME280;13291;40.472;-3.878;2022-08-02T00:50:49;52765.94;;;-139.96;30.73
7906;BME280;13291;40.472;-3.878;2022-08-02T00:53:16;52745.94;;;-139.96;30.66
7906;BME280;13291;40.472;-3.878;2022-08-02T00:55:44;52761.94;;;-139.96;30.58
7906;BME280;13291;40.472;-3.878;2022-08-02T00:58:11;52769.94;;;-139.96;30.31
7906;BME280;13291;40.472;-3.878;2022-08-02T01:00:38;52771.94;;;-139.96;30.65
7906;BME280;13291;40.472;-3.878;2022-08-02T01:03:05;52753.94;;;-139.96;30.38
7906;BME280;13291;40.472;-3.878;2022-08-02T01:05:32;52753.94;;;-139.96;30.32
7906;BME280;13291;40.472;-3.878;2022-08-02T01:07:59;52775.94;;;-139.96;30.45
7906;BME280;13291;40.472;-3.878;2022-08-02T01:10:26;52813.94;;;-139.96;30.24
7906;BME280;13291;40.472;-3.878;2022-08-02T01:12:54;52779.94;;;-139.96;30.59
7906;BME280;13291;40.472;-3.878;2022-08-02T01:15:21;52777.94;;;-139.96;30.40
7906;BME280;13291;40.472;-3.878;2022-08-02T01:17:53;52761.94;;;-139.96;30.41
7906;BME280;13291;40.472;-3.878;2022-08-02T01:20:39;52749.94;;;-139.96;
7906;BME280;13291;40.472;-3.878;2022-08-02T01:23:34;52769.94;;;-139.96;30.30
7906;BME280;13291;40.472;-3.878;2022-08-02T01:26:17;52781.94;;;-139.96;30.03
7906;BME280;13291;40.472;-3.878;2022-08-02T01:28:52;52809.94;;;-139.96;30.22
7906;BME280;13291;40.472;-3.878;2022-08-02T01:31:24;52787.94;;;-139.96;30.15
7906;BME280;13291;40.472;-3.878;2022-08-02T01:33:58;52779.94;;;-139.96;30.23
7906;BME280;13291;40.472;-3.878;2022-08-02T01:36:31;52781.94;;;-139.96;30.44
7906;BME280;13291;40.472;-3.878;2022-08-02T01:39:00;52781.94;;;-139.96;30.46
7906;BME280;13291;40.472;-3.878;2022-08-02T01:41:31;52759.94;;;-139.96;30.23
7906;BME280;13291;40.472;-3.878;2022-08-02T01:44:02;52771.94;;;-139.96;30.36
7906;BME280;13291;40.472;-3.878;2022-08-02T01:46:30;52775.94;;;-139.96;30.22
7906;BME280;13291;40.472;-3.878;2022-08-02T01:49:02;52765.94;;;-139.96;30.09
7906;BME280;13291;40.472;-3.878;2022-08-02T01:51:31;52767.94;;;-139.96;30.16
7906;BME280;13291;40.472;-3.878;2022-08-02T01:54:17;52755.94;;;-139.96;30.43
7906;BME280;13291;40.472;-3.878;2022-08-02T01:56:46;52759.94;;;-139.96;30.21
7906;BME280;13291;40.472;-3.878;2022-08-02T01:59:18;52757.94;;;-139.96;30.22
7906;BME280;13291;40.472;-3.878;2022-08-02T02:01:48;52791.94;;;-139.96;30.08
7906;BME280;13291;40.472;-3.878;2022-08-02T02:04:16;52791.94;;;-139.96;30.28
7906;BME280;13291;40.472;-3.878;2022-08-02T02:06:46;52769.94;;;-139.96;30.28
7906;BME280;13291;40.472;-3.878;2022-08-02T02:09:15;52781.94;;;-139.96;30.61
7906;BME280;13291;40.472;-3.878;2022-08-02T02:11:43;52747.94;;;-139.96;30.50
7906;BME280;13291;40.472;-3.878;2022-08-02T02:14:13;52767.94;;;-139.96;30.54
7906;BME280;13291;40.472;-3.878;2022-08-02T02:16:45;52775.94;;;-139.96;30.70
7906;BME280;13291;40.472;-3.878;2022-08-02T02:19:15;52785.94;;;-139.96;30.67
7906;BME280;13291;40.472;-3.878;2022-08-02T02:21:42;52801.94;;;-139.96;30.75
7906;BME280;13291;40.472;-3.878;2022-08-02T02:24:09;52783.94;;;-139.96;30.94
7906;BME280;13291;40.472;-3.878;2022-08-02T02:26:37;52767.94;;;-139.96;30.96
7906;BME280;13291;40.472;-3.878;2022-08-02T02:29:06;52765.94;;;-139.96;31.38
7906;BME280;13291;40.472;-3.878;2022-08-02T02:31:36;52775.94;;;-139.96;31.62
7906;BME280;13291;40.472;-3.878;2022-08-02T02:34:08;52807.94;;;-139.96;32.09
7906;BME280;13291;40.472;-3.878;2022-08-02T02:36:38;52801.94;;;-139.96;32.19
7906;BME280;13291;40.472;-3.878;2022-08-02T02:39:06;52797.94;;;-139.96;32.33
7906;BME280;13291;40.472;-3.878;2022-08-02T02:41:36;52765.94;;;-139.96;32.29
7906;BME280;13291;40.472;-3.878;2022-08-02T02:44:05;52765.94;;;-139.96;32.79
7906;BME280;13291;40.472;-3.878;2022-08-02T02:46:35;52785.94;;;-139.96;32.77
7906;BME280;13291;40.472;-3.878;2022-08-02T02:49:03;52801.94;;;-139.96;32.84
7906;BME280;13291;40.472;-3.878;2022-08-02T02:51:31;52757.94;;;-139.96;32.70
7906;BME280;13291;40.472;-3.878;2022-08-02T02:53:59;52787.94;;;-139.96;32.35
7906;BME280;13291;40.472;-3.878;2022-08-02T02:56:27;52773.94;;;-139.96;32.19
7906;BME280;13291;40.472;-3.878;2022-08-02T02:58:54;52781.94;;;-139.96;32.21
7906;BME280;13291;40.472;-3.878;2022-08-02T03:01:21;52779.94;;;-139.96;32.12
7906;BME280;13291;40.472;-3.878;2022-08-02T03:03:56;52777.94;;;-139.96;31.95
7906;BME280;13291;40.472;-3.878;2022-08-02T03:06:25;52797.94;;;-139.96;32.21
7906;BME280;13291;40.472;-3.878;2022-08-02T03:08:53;52777.94;;;-139.96;32.05
7906;BME280;13291;40.472;-3.878;2022-08-02T03:11:21;52779.94;;;-139.96;31.84
7906;BME280;13291;40.472;-3.878;2022-08-02T03:13:49;52789.94;;;-139.96;31.81
7906;BME280;13291;40.472;-3.878;2022-08-02T03:16:17;52829.94;;;-139.96;31.88
7906;BME280;13291;40.472;-3.878;2022-08-02T03:18:44;52793.94;;;-139.96;31.75
7906;BME280;13291;40.472;-3.878;2022-08-02T03:21:12;52785.94;;;-139.96;31.55
7906;BME280;13291;40.472;-3.878;2022-08-02T03:23:40;52809.94;;;-139.96;31.42
7906;BME280;13291;40.472;-3.878;2022-08-02T03:26:09;52795.94;;;-139.96;31.18
7906;BME280;13291;40.472;-3.878;2022-08-02T03:28:36;52791.94;;;-139.96;31.29
7906;BME280;13291;40.472;-3.878;2022-08-02T03:31:03;52787.94;;;-139.96;31.12
7906;BME280;13291;40.472;-3.878;2022-08-02T03:33:30;52781.94;;;-139.96;31.01
7906;BME280;13291;40.472;-3.878;2022-08-02T03:36:04;52803.94;;;-139.96;31.17
7906;BME280;13291;40.472;-3.878;2022-08-02T03:38:33;52793.94;;;-139.96;31.18
7906;BME280;13291;40.472;-3.878;2022-08-02T03:41:01;52777.94;;;-139.96;31.35
7906;BME280;13291;40.472;-3.878;2022-08-02T03:43:29;52785.94;;;-139.96;32.36
7906;BME280;13291;40.472;-3.878;2022-08-02T03:45:57;52779.94;;;-139.96;32.07
7906;BME280;13291;40.472;-3.878;2022-08-02T03:48:26;52797.94;;;-139.96;31.97
7906;BME280;13291;40.472;-3.878;2022-08-02T03:50:53;52789.94;;;-139.96;31.75
7906;BME280;13291;40.472;-3.878;2022-08-02T03:53:21;52827.94;;;-139.96;31.69
7906;BME280;13291;40.472;-3.878;2022-08-02T03:55:48;52825.94;;;-139.96;31.69
7906;BME280;13291;40.472;-3.878;2022-08-02T03:58:17;52797.94;;;-139.96;31.64
7906;BME280;13291;40.472;-3.878;2022-08-02T04:00:45;52813.94;;;-139.96;31.62
7906;BME280;13291;40.472;-3.878;2022-08-02T04:03:13;52779.94;;;-139.96;31.79
7906;BME280;13291;40.472;-3.878;2022-08-02T04:05:40;52797.94;;;-139.96;31.84
7906;BME280;13291;40.472;-3.878;2022-08-02T04:08:07;52793.94;;;-139.96;31.87
7906;BME280;13291;40.472;-3.878;2022-08-02T04:10:34;52791.94;;;-139.96;32.02
7906;BME280;13291;40.472;-3.878;2022-08-02T04:13:22;52815.94;;;-139.96;32.22
7906;BME280;13291;40.472;-3.878;2022-08-02T04:15:56;52829.94;;;-139.96;32.12
7906;BME280;13291;40.472;-3.878;2022-08-02T04:18:27;52793.94;;;-139.96;31.91
7906;BME280;13291;40.472;-3.878;2022-08-02T04:20:56;52807.94;;;-139.96;32.45
7906;BME280;13291;40.472;-3.878;2022-08-02T04:23:25;52797.94;;;-139.96;32.26
7906;BME280;13291;40.472;-3.878;2022-08-02T04:25:53;52833.97;;;-139.96;32.24
7906;BME280;13291;40.472;-3.878;2022-08-02T04:28:21;52823.94;;;-139.96;32.33
7906;BME280;13291;40.472;-3.878;2022-08-02T04:30:48;52783.94;;;-139.96;32.29
7906;BME280;13291;40.472;-3.878;2022-08-02T04:33:18;52797.94;;;-139.96;32.34
7906;BME280;13291;40.472;-3.878;2022-08-02T04:35:45;52793.94;;;-139.96;32.41
7906;BME280;13291;40.472;-3.878;2022-08-02T04:38:12;52785.94;;;-139.96;32.31
7906;BME280;13291;40.472;-3.878;2022-08-02T04:40:40;52811.94;;;-139.96;32.14
7906;BME280;13291;40.472;-3.878;2022-08-02T04:43:15;52785.94;;;-139.96;32.27
7906;BME280;13291;40.472;-3.878;2022-08-02T04:45:42;52781.94;;;-139.96;32.23
7906;BME280;13291;40.472;-3.878;2022-08-02T04:48:10;52823.94;;;-139.96;32.07
7906;BME280;13291;40.472;-3.878;2022-08-02T04:50:38;52817.94;;;-139.96;32.17
7906;BME280;13291;40.472;-3.878;2022-08-02T04:53:05;52829.94;;;-139.96;32.13
7906;BME280;13291;40.472;-3.878;2022-08-02T04:55:32;52793.94;;;-139.96;32.46
7906;BME280;13291;40.472;-3.878;2022-08-02T04:57:59;52801.94;;;-139.96;32.05
7906;BME280;13291;40.472;-3.878;2022-08-02T05:00:27;52781.94;;;-139.96;32.27
7906;BME280;13291;40.472;-3.878;2022-08-02T05:02:55;52785.94;;;-139.96;32.45
7906;BME280;13291;40.472;-3.878;2022-08-02T05:05:22;52777.94;;;-139.96;32.20
7906;BME280;13291;40.472;-3.878;2022-08-02T05:07:50;52809.94;;;-139.96;32.12
7906;BME280;13291;40.472;-3.878;2022-08-02T05:10:18;52809.94;;;-139.96;32.06
7906;BME280;13291;40.472;-3.878;2022-08-02T05:12:45;52821.94;;;-139.96;32.20
7906;BME280;13291;40.472;-3.878;2022-08-02T05:15:12;52809.94;;;-139.96;32.11
7906;BME280;13291;40.472;-3.878;2022-08-02T05:17:41;52795.94;;;-139.96;32.12
7906;BME280;13291;40.472;-3.878;2022-08-02T05:20:09;52799.94;;;-139.96;32.19
7906;BME280;13291;40.472;-3.878;2022-08-02T05:22:37;52789.94;;;-139.96;32.09
7906;BME280;13291;40.472;-3.878;2022-08-02T05:25:07;52801.94;;;-139.96;32.25
7906;BME280;13291;40.472;-3.878;2022-08-02T05:27:34;52803.94;;;-139.96;32.38
7906;BME280;13291;40.472;-3.878;2022-08-02T05:30:01;52821.94;;;-139.96;32.07
7906;BME280;13291;40.472;-3.878;2022-08-02T05:32:28;52821.94;;;-139.96;32.27
7906;BME280;13291;40.472;-3.878;2022-08-02T05:34:55;52807.94;;;-139.96;32.05
7906;BME280;13291;40.472;-3.878;2022-08-02T05:37:22;52837.97;;;-139.96;32.43
7906;BME280;13291;40.472;-3.878;2022-08-02T05:39:49;52791.94;;;-139.96;32.37
7906;BME280;13291;40.472;-3.878;2022-08-02T05:42:17;52813.94;;;-139.96;32.29
7906;BME280;13291;40.472;-3.878;2022-08-02T05:44:44;52795.94;;;-139.96;32.50
7906;BME280;13291;40.472;-3.878;2022-08-02T05:47:11;52789.94;;;-139.96;32.40
7906;BME280;13291;40.472;-3.878;2022-08-02T05:49:38;52821.94;;;-139.96;32.56
7906;BME280;13291;40.472;-3.878;2022-08-02T05:52:10;52831.97;;;-139.96;32.62
7906;BME280;13291;40.472;-3.878;2022-08-02T05:54:47;52817.94;;;-139.96;32.58
7906;BME280;13291;40.472;-3.878;2022-08-02T05:57:28;52783.94;;;-139.96;32.48
7906;BME280;13291;40.472;-3.878;2022-08-02T06:00:02;52825.94;;;-139.96;32.77
7906;BME280;13291;40.472;-3.878;2022-08-02T06:02:41;52809.94;;;-139.96;33.05
7906;BME280;13291;40.472;-3.878;2022-08-02T06:05:10;52797.94;;;-139.96;33.04
7906;BME280;13291;40.472;-3.878;2022-08-02T06:07:40;52825.94;;;-139.96;32.95
7906;BME280;13291;40.472;-3.878;2022-08-02T06:10:09;52823.94;;;-139.96;33.48
7906;BME280;13291;40.472;-3.878;2022-08-02T06:12:41;52801.94;;;-139.96;33.17
7906;BME280;13291;40.472;-3.878;2022-08-02T06:15:13;52801.94;;;-139.96;33.30
7906;BME280;13291;40.472;-3.878;2022-08-02T06:17:41;52801.94;;;-139.96;33.43
7906;BME280;13291;40.472;-3.878;2022-08-02T06:20:10;52803.94;;;-139.96;33.41
7906;BME280;13291;40.472;-3.878;2022-08-02T06:22:39;52837.97;;;-139.96;33.52
7906;BME280;13291;40.472;-3.878;2022-08-02T06:25:07;52813.94;;;-139.96;33.42
7906;BME280;13291;40.472;-3.878;2022-08-02T06:27:34;52811.94;;;-139.96;33.90
7906;BME280;13291;40.472;-3.878;2022-08-02T06:30:05;52809.94;;;-139.96;33.56
7906;BME280;13291;40.472;-3.878;2022-08-02T06:32:32;52813.94;;;-139.96;33.90
7906;BME280;13291;40.472;-3.878;2022-08-02T06:34:59;52799.94;;;-139.96;33.90
7906;BME280;13291;40.472;-3.878;2022-08-02T06:37:33;52797.94;;;-139.96;34.10
7906;BME280;13291;40.472;-3.878;2022-08-02T06:40:05;52829.94;;;-139.96;34.01
7906;BME280;13291;40.472;-3.878;2022-08-02T06:42:43;52825.94;;;-139.96;34.17
7906;BME280;13291;40.472;-3.878;2022-08-02T06:45:14;52831.97;;;-139.96;34.14
7906;BME280;13291;40.472;-3.878;2022-08-02T06:47:41;52821.94;;;-139.96;34.45
7906;BME280;13291;40.472;-3.878;2022-08-02T06:50:08;52813.94;;;-139.96;34.35
7906;BME280;13291;40.472;-3.878;2022-08-02T06:52:35;52815.94;;;-139.96;34.27
7906;BME280;13291;40.472;-3.878;2022-08-02T06:55:04;52797.94;;;-139.96;34.37
7906;BME280;13291;40.472;-3.878;2022-08-02T06:57:32;52847.97;;;-139.96;34.47
7906;BME280;13291;40.472;-3.878;2022-08-02T06:59:59;52817.94;;;-139.96;34.81
7906;BME280;13291;40.472;-3.878;2022-08-02T07:02:29;52803.94;;;-139.96;34.57
7906;BME280;13291;40.472;-3.878;2022-08-02T07:04:56;52807.94;;;-139.96;34.70
7906;BME280;13291;40.472;-3.878;2022-08-02T07:07:25;52821.94;;;-139.96;34.81
7906;BME280;13291;40.472;-3.878;2022-08-02T07:09:52;52811.94;;;-139.96;35.15
7906;BME280;13291;40.472;-3.878;2022-08-02T07:12:19;52811.94;;;-139.96;35.04
7906;BME280;13291;40.472;-3.878;2022-08-02T07:14:46;52827.94;;;-139.96;35.14
7906;BME280;13291;40.472;-3.878;2022-08-02T07:17:13;52821.94;;;-139.96;35.33
7906;BME280;13291;40.472;-3.878;2022-08-02T07:19:41;52795.94;;;-139.96;35.05
7906;BME280;13291;40.472;-3.878;2022-08-02T07:22:08;52805.94;;;-139.96;35.31
7906;BME280;13291;40.472;-3.878;2022-08-02T07:24:37;52811.94;;;-139.96;35.31
7906;BME280;13291;40.472;-3.878;2022-08-02T07:27:04;52805.94;;;-139.96;35.62
7906;BME280;13291;40.472;-3.878;2022-08-02T07:29:31;52789.94;;;-139.96;35.31
7906;BME280;13291;40.472;-3.878;2022-08-02T07:31:58;52819.94;;;-139.96;35.43
7906;BME280;13291;40.472;-3.878;2022-08-02T07:34:25;52817.94;;;-139.96;35.80
7906;BME280;13291;40.472;-3.878;2022-08-02T07:36:53;52799.94;;;-139.96;35.75
7906;BME280;13291;40.472;-3.878;2022-08-02T07:39:21;52837.97;;;-139.96;36.00
7906;BME280;13291;40.472;-3.878;2022-08-02T07:41:48;52813.94;;;-139.96;35.71
7906;BME280;13291;40.472;-3.878;2022-08-02T07:44:17;52803.94;;;-139.96;35.63
7906;BME280;13291;40.472;-3.878;2022-08-02T07:46:44;52809.94;;;-139.96;35.96
7906;BME280;13291;40.472;-3.878;2022-08-02T07:49:10;52803.94;;;-139.96;35.53
7906;BME280;13291;40.472;-3.878;2022-08-02T07:51:43;52797.94;;;-139.96;35.83
7906;BME280;13291;40.472;-3.878;2022-08-02T07:54:11;52797.94;;;-139.96;36.13
7906;BME280;13291;40.472;-3.878;2022-08-02T07:56:38;52799.94;;;-139.96;36.35
7906;BME280;13291;40.472;-3.878;2022-08-02T07:59:05;52809.94;;;-139.96;36.12
7906;BME280;13291;40.472;-3.878;2022-08-02T08:01:32;52785.94;;;-139.96;36.12
7906;BME280;13291;40.472;-3.878;2022-08-02T08:03:59;52801.94;;;-139.96;36.06
7906;BME280;13291;40.472;-3.878;2022-08-02T08:06:26;52807.94;;;-139.96;36.27
7906;BME280;13291;40.472;-3.878;2022-08-02T08:08:53;52821.94;;;-139.96;37.40
7906;BME280;13291;40.472;-3.878;2022-08-02T08:11:21;52783.94;;;-139.96;36.76
7906;BME280;13291;40.472;-3.878;2022-08-02T08:13:48;52805.94;;;-139.96;36.37
7906;BME280;13291;40.472;-3.878;2022-08-02T08:16:15;52803.94;;;-139.96;36.92
7906;BME280;13291;40.472;-3.878;2022-08-02T08:18:42;52789.94;;;-139.96;36.77
7906;BME280;13291;40.472;-3.878;2022-08-02T08:21:09;52795.94;;;-139.96;36.68
7906;BME280;13291;40.472;-3.878;2022-08-02T08:23:36;52809.94;;;-139.96;37.33
7906;BME280;13291;40.472;-3.878;2022-08-02T08:26:03;52803.94;;;-139.96;36.82
7906;BME280;13291;40.472;-3.878;2022-08-02T08:28:32;52793.94;;;-139.96;36.84
7906;BME280;13291;40.472;-3.878;2022-08-02T08:31:00;52773.94;;;-139.96;36.58
7906;BME280;13291;40.472;-3.878;2022-08-02T08:33:27;52773.94;;;-139.96;36.74
7906;BME280;13291;40.472;-3.878;2022-08-02T08:35:54;52759.94;;;-139.96;36.71
7906;BME280;13291;40.472;-3.878;2022-08-02T08:38:21;52783.94;;;-139.96;36.92
7906;BME280;13291;40.472;-3.878;2022-08-02T08:40:48;52805.94;;;-139.96;36.46
7906;BME280;13291;40.472;-3.878;2022-08-02T08:43:15;52781.94;;;-139.96;36.36
7906;BME280;13291;40.472;-3.878;2022-08-02T08:45:44;52789.94;;;-139.96;37.10
7906;BME280;13291;40.472;-3.878;2022-08-02T08:48:13;52787.94;;;-139.96;36.42
7906;BME280;13291;40.472;-3.878;2022-08-02T08:50:45;52775.94;;;-139.96;36.34
7906;BME280;13291;40.472;-3.878;2022-08-02T08:53:14;52815.94;;;-139.96;36.65
7906;BME280;13291;40.472;-3.878;2022-08-02T08:55:41;52775.94;;;-139.96;37.08
7906;BME280;13291;40.472;-3.878;2022-08-02T08:58:10;52801.94;;;-139.96;36.98
7906;BME280;13291;40.472;-3.878;2022-08-02T09:00:37;52791.94;;;-139.96;36.77
7906;BME280;13291;40.472;-3.878;2022-08-02T09:03:08;52805.94;;;-139.96;36.27
7906;BME280;13291;40.472;-3.878;2022-08-02T09:05:36;52787.94;;;-139.96;36.61
7906;BME280;13291;40.472;-3.878;2022-08-02T09:08:04;52761.94;;;-139.96;36.62
7906;BME280;13291;40.472;-3.878;2022-08-02T09:10:42;52767.94;;;-139.96;36.82
7906;BME280;13291;40.472;-3.878;2022-08-02T09:13:11;52815.94;;;-139.96;38.46
7906;BME280;13291;40.472;-3.878;2022-08-02T09:15:41;52773.94;;;-139.96;38.41
7906;BME280;13291;40.472;-3.878;2022-08-02T09:18:10;52797.94;;;-139.96;38.53
7906;BME280;13291;40.472;-3.878;2022-08-02T09:20:51;52785.94;;;-139.96;38.42
7906;BME280;13291;40.472;-3.878;2022-08-02T09:23:18;52777.94;;;-139.96;37.75
7906;BME280;13291;40.472;-3.878;2022-08-02T09:25:54;52769.94;;;-139.96;38.32
7906;BME280;13291;40.472;-3.878;2022-08-02T09:28:25;52781.94;;;-139.96;38.42
7906;BME280;13291;40.472;-3.878;2022-08-02T09:30:55;52793.94;;;-139.96;38.00
7906;BME280;13291;40.472;-3.878;2022-08-02T09:33:27;52781.94;;;-139.96;37.30
7906;BME280;13291;40.472;-3.878;2022-08-02T09:36:04;52763.94;;;-139.96;38.70
7906;BME280;13291;40.472;-3.878;2022-08-02T09:38:32;52817.94;;;-139.96;37.93
7906;BME280;13291;40.472;-3.878;2022-08-02T09:41:00;52765.94;;;-139.96;37.47
7906;BME280;13291;40.472;-3.878;2022-08-02T09:43:38;52749.94;;;-139.96;38.78
7906;BME280;13291;40.472;-3.878;2022-08-02T09:46:13;52791.94;;;-139.96;38.41
7906;BME280;13291;40.472;-3.878;2022-08-02T09:48:49;52769.94;;;-139.96;37.75
7906;BME280;13291;40.472;-3.878;2022-08-02T09:51:18;52781.94;;;-139.96;39.00
7906;BME280;13291;40.472;-3.878;2022-08-02T09:53:47;52759.94;;;-139.96;37.55
7906;BME280;13291;40.472;-3.878;2022-08-02T09:56:15;52785.94;;;-139.96;37.80
7906;BME280;13291;40.472;-3.878;2022-08-02T09:58:42;52773.94;;;-139.96;38.44
7906;BME280;13291;40.472;-3.878;2022-08-02T10:01:09;52765.94;;;-139.96;38.19
7906;BME280;13291;40.472;-3.878;2022-08-02T10:03:36;52775.94;;;-139.96;37.91
7906;BME280;13291;40.472;-3.878;2022-08-02T10:06:05;52785.94;;;-139.96;37.41
7906;BME280;13291;40.472;-3.878;2022-08-02T10:08:32;52781.94;;;-139.96;37.71
7906;BME280;13291;40.472;-3.878;2022-08-02T10:10:59;52779.94;;;-139.96;37.44
7906;BME280;13291;40.472;-3.878;2022-08-02T10:13:28;52773.94;;;-139.96;37.30
7906;BME280;13291;40.472;-3.878;2022-08-02T10:15:55;52797.94;;;-139.96;37.74
7906;BME280;13291;40.472;-3.878;2022-08-02T10:18:22;52781.94;;;-139.96;37.83
7906;BME280;13291;40.472;-3.878;2022-08-02T10:20:50;52777.94;;;-139.96;38.18
7906;BME280;13291;40.472;-3.878;2022-08-02T10:23:24;52765.94;;;-139.96;38.06
7906;BME280;13291;40.472;-3.878;2022-08-02T10:25:52;52769.94;;;-139.96;37.52
7906;BME280;13291;40.472;-3.878;2022-08-02T10:28:25;52789.94;;;-139.96;37.83
7906;BME280;13291;40.472;-3.878;2022-08-02T10:30:54;52753.94;;;-139.96;37.71
7906;BME280;13291;40.472;-3.878;2022-08-02T10:33:22;52753.94;;;-139.96;38.16
7906;BME280;13291;40.472;-3.878;2022-08-02T10:35:52;52765.94;;;-139.96;37.86
7906;BME280;13291;40.472;-3.878;2022-08-02T10:38:23;52751.94;;;-139.96;37.40
7906;BME280;13291;40.472;-3.878;2022-08-02T10:40:53;52749.94;;;-139.96;37.14
7906;BME280;13291;40.472;-3.878;2022-08-02T10:43:41;52749.94;;;-139.96;37.01
7906;BME280;13291;40.472;-3.878;2022-08-02T10:46:22;52743.94;;;-139.96;36.27
7906;BME280;13291;40.472;-3.878;2022-08-02T10:49:16;52731.94;;;-139.96;36.08
7906;BME280;13291;40.472;-3.878;2022-08-02T10:52:17;52729.94;;;-139.96;35.85
7906;BME280;13291;40.472;-3.878;2022-08-02T10:54:50;52757.94;;;-139.96;37.06
7906;BME280;13291;40.472;-3.878;2022-08-02T10:57:21;52745.94;;;-139.96;36.82
7906;BME280;13291;40.472;-3.878;2022-08-02T10:59:50;52773.94;;;-139.96;36.17
7906;BME280;13291;40.472;-3.878;2022-08-02T11:02:36;52739.94;;;-139.96;36.11
7906;BME280;13291;40.472;-3.878;2022-08-02T11:07:49;52761.94;;;-139.96;36.44
7906;BME280;13291;40.472;-3.878;2022-08-02T11:10:45;52765.94;;;-139.96;36.76
7906;BME280;13291;40.472;-3.878;2022-08-02T11:13:13;52747.94;;;-139.96;35.40
7906;BME280;13291;40.472;-3.878;2022-08-02T11:15:50;52753.94;;;-139.96;36.86
7906;BME280;13291;40.472;-3.878;2022-08-02T11:18:17;52737.94;;;-139.96;35.00
7906;BME280;13291;40.472;-3.878;2022-08-02T11:20:45;52711.94;;;-139.96;36.33
7906;BME280;13291;40.472;-3.878;2022-08-02T11:23:34;52733.94;;;-139.96;35.72
7906;BME280;13291;40.472;-3.878;2022-08-02T11:26:41;52763.94;;;-139.96;35.63
7906;BME280;13291;40.472;-3.878;2022-08-02T11:29:09;52753.94;;;-139.96;35.94
7906;BME280;13291;40.472;-3.878;2022-08-02T11:31:39;52741.94;;;-139.96;37.82
7906;BME280;13291;40.472;-3.878;2022-08-02T11:34:06;52713.94;;;-139.96;37.04
7906;BME280;13291;40.472;-3.878;2022-08-02T11:36:41;52771.94;;;-139.96;36.77
7906;BME280;13291;40.472;-3.878;2022-08-02T11:39:09;52721.94;;;-139.96;35.79
7906;BME280;13291;40.472;-3.878;2022-08-02T11:41:38;52709.94;;;-139.96;35.65
7906;BME280;13291;40.472;-3.878;2022-08-02T11:44:05;52715.94;;;-139.96;34.66
7906;BME280;13291;40.472;-3.878;2022-08-02T11:46:32;52733.94;;;-139.96;33.93
7906;BME280;13291;40.472;-3.878;2022-08-02T11:49:11;52725.94;;;-139.96;35.33
7906;BME280;13291;40.472;-3.878;2022-08-02T11:51:38;52713.94;;;-139.96;35.64
7906;BME280;13291;40.472;-3.878;2022-08-02T11:54:21;52715.94;;;-139.96;34.89
7906;BME280;13291;40.472;-3.878;2022-08-02T11:56:50;52715.94;;;-139.96;34.26
7906;BME280;13291;40.472;-3.878;2022-08-02T11:59:17;52721.94;;;-139.96;34.76
7906;BME280;13291;40.472;-3.878;2022-08-02T12:01:44;52699.94;;;-139.96;34.76
7906;BME280;13291;40.472;-3.878;2022-08-02T12:04:11;52683.94;;;-139.96;33.53
7906;BME280;13291;40.472;-3.878;2022-08-02T12:06:41;52709.94;;;-139.96;34.09
7906;BME280;13291;40.472;-3.878;2022-08-02T12:09:10;52681.94;;;-139.96;35.48
7906;BME280;13291;40.472;-3.878;2022-08-02T12:11:39;52685.94;;;-139.96;34.10
7906;BME280;13291;40.472;-3.878;2022-08-02T12:14:08;52721.94;;;-139.96;33.68
7906;BME280;13291;40.472;-3.878;2022-08-02T12:16:37;52707.94;;;-139.96;32.26
7906;BME280;13291;40.472;-3.878;2022-08-02T12:19:23;52697.94;;;-139.96;32.22
7906;BME280;13291;40.472;-3.878;2022-08-02T12:22:09;52695.94;;;-139.96;33.92
7906;BME280;13291;40.472;-3.878;2022-08-02T12:24:37;52673.94;;;-139.96;33.31
7906;BME280;13291;40.472;-3.878;2022-08-02T12:27:04;52689.94;;;-139.96;32.63
7906;BME280;13291;40.472;-3.878;2022-08-02T12:29:35;52703.94;;;-139.96;33.22
7906;BME280;13291;40.472;-3.878;2022-08-02T12:32:03;52679.94;;;-139.96;33.84
7906;BME280;13291;40.472;-3.878;2022-08-02T12:34:31;52707.94;;;-139.96;33.34
7906;BME280;13291;40.472;-3.878;2022-08-02T12:37:00;52725.94;;;-139.96;33.46
7906;BME280;13291;40.472;-3.878;2022-08-02T12:39:39;52681.94;;;-139.96;34.01
7906;BME280;13291;40.472;-3.878;2022-08-02T12:42:08;52697.94;;;-139.96;33.18
7906;BME280;13291;40.472;-3.878;2022-08-02T12:44:43;52673.94;;;-139.96;33.69
7906;BME280;13291;40.472;-3.878;2022-08-02T12:47:15;52705.94;;;-139.96;33.06
7906;BME280;13291;40.472;-3.878;2022-08-02T12:49:42;52697.94;;;-139.96;32.87
7906;BME280;13291;40.472;-3.878;2022-08-02T12:52:19;52685.94;;;-139.96;32.55
7906;BME280;13291;40.472;-3.878;2022-08-02T12:54:46;52679.94;;;-139.96;33.30
7906;BME280;13291;40.472;-3.878;2022-08-02T12:57:16;52685.94;;;-139.96;31.97